<?xml version="1.0" encoding="UTF-8" standalone="no" ?>
<gpx xmlns="http://www.topografix.com/GPX/1/1" xmlns:xsi="http://www.w3.org/2001/XMLSchema-instance" xsi:schemaLocation="http://www.topografix.com/GPX/1/1 http://www.topografix.com/GPX/1/1/gpx.xsd" version="1.1" creator="VisuGPX - https://www.visugpx.com">
  <metadata>
    <name>14797959-la verrerie st nicolas</name>
    <desc><![CDATA[Rando non balisé, à faire avec la carte en main ou un GPS de randonnée.]]></desc>
  </metadata>
  <trk>
    <name><![CDATA[14797959-la verrerie st nicolas]]></name>
    <trkseg>
      <trkpt lat="46.05216" lon="3.80551">
        <ele>1014</ele>
        <time>2022-05-20T13:46:35Z</time>
      </trkpt>
      <trkpt lat="46.05216" lon="3.80495">
        <ele>1016</ele>
        <time>2022-05-20T13:47:27Z</time>
      </trkpt>
      <trkpt lat="46.05056" lon="3.80449">
        <ele>1032</ele>
        <time>2022-05-20T13:51:05Z</time>
      </trkpt>
      <trkpt lat="46.05053" lon="3.80285">
        <ele>1034</ele>
        <time>2022-05-20T13:53:37Z</time>
      </trkpt>
      <trkpt lat="46.05177" lon="3.80224">
        <ele>1025</ele>
        <time>2022-05-20T13:56:31Z</time>
      </trkpt>
      <trkpt lat="46.0523" lon="3.80275">
        <ele>1019</ele>
        <time>2022-05-20T13:57:56Z</time>
      </trkpt>
      <trkpt lat="46.05283" lon="3.80163">
        <ele>1018</ele>
        <time>2022-05-20T14:00:02Z</time>
      </trkpt>
      <trkpt lat="46.05304" lon="3.80041">
        <ele>1017</ele>
        <time>2022-05-20T14:01:58Z</time>
      </trkpt>
      <trkpt lat="46.05343" lon="3.79969">
        <ele>1013</ele>
        <time>2022-05-20T14:03:23Z</time>
      </trkpt>
      <trkpt lat="46.05386" lon="3.79857">
        <ele>1002</ele>
        <time>2022-05-20T14:05:22Z</time>
      </trkpt>
      <trkpt lat="46.05347" lon="3.79796">
        <ele>995</ele>
        <time>2022-05-20T14:06:38Z</time>
      </trkpt>
      <trkpt lat="46.05276" lon="3.79765">
        <ele>1001</ele>
        <time>2022-05-20T14:08:17Z</time>
      </trkpt>
      <trkpt lat="46.05255" lon="3.79673">
        <ele>1010</ele>
        <time>2022-05-20T14:09:47Z</time>
      </trkpt>
      <trkpt lat="46.05209" lon="3.79617">
        <ele>1017</ele>
        <time>2022-05-20T14:11:07Z</time>
      </trkpt>
      <trkpt lat="46.05223" lon="3.79484">
        <ele>1013</ele>
        <time>2022-05-20T14:13:12Z</time>
      </trkpt>
      <trkpt lat="46.05265" lon="3.79423">
        <ele>1009</ele>
        <time>2022-05-20T14:14:32Z</time>
      </trkpt>
      <trkpt lat="46.05272" lon="3.79255">
        <ele>1000</ele>
        <time>2022-05-20T14:17:07Z</time>
      </trkpt>
      <trkpt lat="46.05244" lon="3.79091">
        <ele>998</ele>
        <time>2022-05-20T14:19:44Z</time>
      </trkpt>
      <trkpt lat="46.05283" lon="3.78989">
        <ele>989</ele>
        <time>2022-05-20T14:21:32Z</time>
      </trkpt>
      <trkpt lat="46.05372" lon="3.7879">
        <ele>972</ele>
        <time>2022-05-20T14:25:11Z</time>
      </trkpt>
      <trkpt lat="46.05421" lon="3.78678">
        <ele>962</ele>
        <time>2022-05-20T14:27:14Z</time>
      </trkpt>
      <trkpt lat="46.05464" lon="3.78601">
        <ele>954</ele>
        <time>2022-05-20T14:28:45Z</time>
      </trkpt>
      <trkpt lat="46.05513" lon="3.78515">
        <ele>949</ele>
        <time>2022-05-20T14:30:28Z</time>
      </trkpt>
      <trkpt lat="46.05396" lon="3.7853">
        <ele>960</ele>
        <time>2022-05-20T14:33:05Z</time>
      </trkpt>
      <trkpt lat="46.05343" lon="3.78571">
        <ele>963</ele>
        <time>2022-05-20T14:34:25Z</time>
      </trkpt>
      <trkpt lat="46.05265" lon="3.78663">
        <ele>970</ele>
        <time>2022-05-20T14:36:40Z</time>
      </trkpt>
      <trkpt lat="46.05195" lon="3.78708">
        <ele>978</ele>
        <time>2022-05-20T14:38:22Z</time>
      </trkpt>
      <trkpt lat="46.05241" lon="3.78428">
        <ele>945</ele>
        <time>2022-05-20T14:42:48Z</time>
      </trkpt>
      <trkpt lat="46.05255" lon="3.78239">
        <ele>929</ele>
        <time>2022-05-20T14:45:44Z</time>
      </trkpt>
      <trkpt lat="46.0523" lon="3.78183">
        <ele>924</ele>
        <time>2022-05-20T14:46:46Z</time>
      </trkpt>
      <trkpt lat="46.05117" lon="3.78106">
        <ele>915</ele>
        <time>2022-05-20T14:49:33Z</time>
      </trkpt>
      <trkpt lat="46.05074" lon="3.78035">
        <ele>902</ele>
        <time>2022-05-20T14:51:00Z</time>
      </trkpt>
      <trkpt lat="46.04957" lon="3.78142">
        <ele>862</ele>
        <time>2022-05-20T14:54:05Z</time>
      </trkpt>
      <trkpt lat="46.04886" lon="3.78081">
        <ele>833</ele>
        <time>2022-05-20T14:55:55Z</time>
      </trkpt>
      <trkpt lat="46.04879" lon="3.77963">
        <ele>825</ele>
        <time>2022-05-20T14:57:45Z</time>
      </trkpt>
      <trkpt lat="46.04883" lon="3.77856">
        <ele>823</ele>
        <time>2022-05-20T14:59:24Z</time>
      </trkpt>
      <trkpt lat="46.04932" lon="3.77662">
        <ele>830</ele>
        <time>2022-05-20T15:02:36Z</time>
      </trkpt>
      <trkpt lat="46.04897" lon="3.77601">
        <ele>829</ele>
        <time>2022-05-20T15:03:49Z</time>
      </trkpt>
      <trkpt lat="46.04893" lon="3.7754">
        <ele>828</ele>
        <time>2022-05-20T15:04:46Z</time>
      </trkpt>
      <trkpt lat="46.05035" lon="3.7754">
        <ele>842</ele>
        <time>2022-05-20T15:07:55Z</time>
      </trkpt>
      <trkpt lat="46.05149" lon="3.77581">
        <ele>860</ele>
        <time>2022-05-20T15:10:32Z</time>
      </trkpt>
      <trkpt lat="46.05251" lon="3.77514">
        <ele>877</ele>
        <time>2022-05-20T15:13:01Z</time>
      </trkpt>
      <trkpt lat="46.05283" lon="3.77417">
        <ele>878</ele>
        <time>2022-05-20T15:14:41Z</time>
      </trkpt>
      <trkpt lat="46.05396" lon="3.77468">
        <ele>897</ele>
        <time>2022-05-20T15:17:19Z</time>
      </trkpt>
      <trkpt lat="46.05414" lon="3.77591">
        <ele>901</ele>
        <time>2022-05-20T15:19:15Z</time>
      </trkpt>
      <trkpt lat="46.05446" lon="3.77826">
        <ele>899</ele>
        <time>2022-05-20T15:22:57Z</time>
      </trkpt>
      <trkpt lat="46.05485" lon="3.77912">
        <ele>897</ele>
        <time>2022-05-20T15:24:32Z</time>
      </trkpt>
      <trkpt lat="46.05609" lon="3.77943">
        <ele>892</ele>
        <time>2022-05-20T15:27:20Z</time>
      </trkpt>
      <trkpt lat="46.05678" lon="3.77947">
        <ele>887</ele>
        <time>2022-05-20T15:28:52Z</time>
      </trkpt>
      <trkpt lat="46.05726" lon="3.77993">
        <ele>884</ele>
        <time>2022-05-20T15:30:09Z</time>
      </trkpt>
      <trkpt lat="46.05755" lon="3.78069">
        <ele>890</ele>
        <time>2022-05-20T15:31:30Z</time>
      </trkpt>
      <trkpt lat="46.05775" lon="3.78111">
        <ele>892</ele>
        <time>2022-05-20T15:32:17Z</time>
      </trkpt>
      <trkpt lat="46.0581" lon="3.78155">
        <ele>894</ele>
        <time>2022-05-20T15:33:19Z</time>
      </trkpt>
      <trkpt lat="46.05813" lon="3.78196">
        <ele>899</ele>
        <time>2022-05-20T15:33:57Z</time>
      </trkpt>
      <trkpt lat="46.05854" lon="3.78274">
        <ele>904</ele>
        <time>2022-05-20T15:35:28Z</time>
      </trkpt>
      <trkpt lat="46.05893" lon="3.78242">
        <ele>899</ele>
        <time>2022-05-20T15:36:27Z</time>
      </trkpt>
      <trkpt lat="46.0593" lon="3.78195">
        <ele>894</ele>
        <time>2022-05-20T15:37:33Z</time>
      </trkpt>
      <trkpt lat="46.05973" lon="3.78195">
        <ele>892</ele>
        <time>2022-05-20T15:38:31Z</time>
      </trkpt>
      <trkpt lat="46.06001" lon="3.78169">
        <ele>889</ele>
        <time>2022-05-20T15:39:15Z</time>
      </trkpt>
      <trkpt lat="46.06048" lon="3.78198">
        <ele>888</ele>
        <time>2022-05-20T15:40:23Z</time>
      </trkpt>
      <trkpt lat="46.06064" lon="3.78271">
        <ele>888</ele>
        <time>2022-05-20T15:41:34Z</time>
      </trkpt>
      <trkpt lat="46.06053" lon="3.78375">
        <ele>886</ele>
        <time>2022-05-20T15:43:12Z</time>
      </trkpt>
      <trkpt lat="46.0607" lon="3.78442">
        <ele>887</ele>
        <time>2022-05-20T15:44:18Z</time>
      </trkpt>
      <trkpt lat="46.06088" lon="3.78503">
        <ele>895</ele>
        <time>2022-05-20T15:45:19Z</time>
      </trkpt>
      <trkpt lat="46.06049" lon="3.78641">
        <ele>916</ele>
        <time>2022-05-20T15:47:37Z</time>
      </trkpt>
      <trkpt lat="46.06004" lon="3.78811">
        <ele>937</ele>
        <time>2022-05-20T15:50:26Z</time>
      </trkpt>
      <trkpt lat="46.05978" lon="3.78982">
        <ele>946</ele>
        <time>2022-05-20T15:53:08Z</time>
      </trkpt>
      <trkpt lat="46.06014" lon="3.79094">
        <ele>957</ele>
        <time>2022-05-20T15:55:02Z</time>
      </trkpt>
      <trkpt lat="46.06038" lon="3.79166">
        <ele>953</ele>
        <time>2022-05-20T15:56:16Z</time>
      </trkpt>
      <trkpt lat="46.06035" lon="3.79311">
        <ele>955</ele>
        <time>2022-05-20T15:58:30Z</time>
      </trkpt>
      <trkpt lat="46.06015" lon="3.79337">
        <ele>957</ele>
        <time>2022-05-20T15:59:06Z</time>
      </trkpt>
      <trkpt lat="46.05992" lon="3.79339">
        <ele>957</ele>
        <time>2022-05-20T15:59:37Z</time>
      </trkpt>
      <trkpt lat="46.05942" lon="3.79589">
        <ele>993</ele>
        <time>2022-05-20T16:03:38Z</time>
      </trkpt>
      <trkpt lat="46.05906" lon="3.79832">
        <ele>1010</ele>
        <time>2022-05-20T16:07:28Z</time>
      </trkpt>
      <trkpt lat="46.05989" lon="3.79808">
        <ele>1011</ele>
        <time>2022-05-20T16:09:21Z</time>
      </trkpt>
      <trkpt lat="46.06008" lon="3.79888">
        <ele>1010</ele>
        <time>2022-05-20T16:10:39Z</time>
      </trkpt>
      <trkpt lat="46.06025" lon="3.80069">
        <ele>1011</ele>
        <time>2022-05-20T16:13:28Z</time>
      </trkpt>
      <trkpt lat="46.06037" lon="3.80302">
        <ele>1016</ele>
        <time>2022-05-20T16:17:05Z</time>
      </trkpt>
      <trkpt lat="46.06055" lon="3.80509">
        <ele>1015</ele>
        <time>2022-05-20T16:20:18Z</time>
      </trkpt>
      <trkpt lat="46.06104" lon="3.80607">
        <ele>1014</ele>
        <time>2022-05-20T16:22:10Z</time>
      </trkpt>
      <trkpt lat="46.06181" lon="3.80654">
        <ele>1015</ele>
        <time>2022-05-20T16:24:01Z</time>
      </trkpt>
      <trkpt lat="46.06164" lon="3.80695">
        <ele>1012</ele>
        <time>2022-05-20T16:24:46Z</time>
      </trkpt>
      <trkpt lat="46.06179" lon="3.80788">
        <ele>1012</ele>
        <time>2022-05-20T16:26:14Z</time>
      </trkpt>
      <trkpt lat="46.06225" lon="3.81064">
        <ele>1021</ele>
        <time>2022-05-20T16:30:37Z</time>
      </trkpt>
      <trkpt lat="46.06264" lon="3.81229">
        <ele>1026</ele>
        <time>2022-05-20T16:33:18Z</time>
      </trkpt>
      <trkpt lat="46.06165" lon="3.81332">
        <ele>1024</ele>
        <time>2022-05-20T16:36:01Z</time>
      </trkpt>
      <trkpt lat="46.06075" lon="3.81387">
        <ele>1022</ele>
        <time>2022-05-20T16:38:12Z</time>
      </trkpt>
      <trkpt lat="46.06035" lon="3.81402">
        <ele>1020</ele>
        <time>2022-05-20T16:39:07Z</time>
      </trkpt>
      <trkpt lat="46.0599" lon="3.81384">
        <ele>1019</ele>
        <time>2022-05-20T16:40:09Z</time>
      </trkpt>
      <trkpt lat="46.05935" lon="3.81443">
        <ele>1005</ele>
        <time>2022-05-20T16:41:41Z</time>
      </trkpt>
      <trkpt lat="46.05862" lon="3.81278">
        <ele>1010</ele>
        <time>2022-05-20T16:44:42Z</time>
      </trkpt>
      <trkpt lat="46.05833" lon="3.81056">
        <ele>1013</ele>
        <time>2022-05-20T16:48:11Z</time>
      </trkpt>
      <trkpt lat="46.05822" lon="3.80891">
        <ele>1013</ele>
        <time>2022-05-20T16:50:44Z</time>
      </trkpt>
      <trkpt lat="46.0576" lon="3.80694">
        <ele>1012</ele>
        <time>2022-05-20T16:54:05Z</time>
      </trkpt>
      <trkpt lat="46.05723" lon="3.80645">
        <ele>1013</ele>
        <time>2022-05-20T16:55:12Z</time>
      </trkpt>
      <trkpt lat="46.0563" lon="3.80657">
        <ele>1014</ele>
        <time>2022-05-20T16:57:16Z</time>
      </trkpt>
      <trkpt lat="46.05602" lon="3.80701">
        <ele>1012</ele>
        <time>2022-05-20T16:58:12Z</time>
      </trkpt>
      <trkpt lat="46.05567" lon="3.80742">
        <ele>1009</ele>
        <time>2022-05-20T16:59:12Z</time>
      </trkpt>
      <trkpt lat="46.05513" lon="3.80741">
        <ele>1008</ele>
        <time>2022-05-20T17:00:24Z</time>
      </trkpt>
      <trkpt lat="46.05429" lon="3.80732">
        <ele>1007</ele>
        <time>2022-05-20T17:02:16Z</time>
      </trkpt>
      <trkpt lat="46.05363" lon="3.80635">
        <ele>1010</ele>
        <time>2022-05-20T17:04:22Z</time>
      </trkpt>
      <trkpt lat="46.05312" lon="3.80562">
        <ele>1010</ele>
        <time>2022-05-20T17:05:58Z</time>
      </trkpt>
      <trkpt lat="46.05311" lon="3.80516">
        <ele>1011</ele>
        <time>2022-05-20T17:06:41Z</time>
      </trkpt>
      <trkpt lat="46.05243" lon="3.80525">
        <ele>1013</ele>
        <time>2022-05-20T17:08:12Z</time>
      </trkpt>
    </trkseg>
  </trk>
</gpx>